CANO2: Clear Boggy Creek abv Caney Creek nr Caney, OK

Data processed at Sat Mar 10 2018 23:59


All information presented herein is the property of the government of the United States of America and may be revised or deleted at any time without prior notice.
Dissemination of this information without the expressed written consent of the Public Affairs Office, Tulsa District U.S. Army Corps of Engineers is strictly prohibited.
These data are gathered electronically and, as presented, have not undergone any form of quality control. These data are not guaranteed to be valid or correct.
Go to home page.
Go to station list.

Upstream stations:

Downstream station:
Previous Day
Next Day
Current Day
    
SHEF ID:       CANO2     Clear Boggy Creek abv Caney Cree
STATION TYPE:  

                STAGE  RIV-FLOW  BAT-LOAD
                   ft       cfs      volt
              Ccp-Rev   Ccp-Rev   Ccp-Rev
(US/Central)
03/08 00:00     11.80       328     12.60
03/08 01:00     11.80       328     12.54
03/08 02:00     11.77       322     12.54
03/08 03:00     11.74       316     12.54
03/08 04:00     11.73       315     12.48
03/08 05:00     11.73       315     12.48
03/08 06:00     11.72       313     12.48
03/08 07:00     11.70       309     12.48
03/08 08:00     11.65       300     12.71
03/08 09:00     11.64       298     13.83
03/08 10:00     11.60       291     14.06
03/08 11:00     11.61       292     14.06
03/08 12:00     11.60       291     13.71
03/08 13:00     11.59       289     13.53
03/08 14:00     11.60       291     13.53
03/08 15:00     11.56       283     13.36
03/08 16:00     11.56       283     13.36
03/08 17:00     11.56       283     13.53
03/08 18:00     11.53       278     13.42
03/08 19:00     11.55       282     13.12
03/08 20:00     11.49       271     12.95
03/08 21:00     11.52       276     12.83
03/08 22:00     11.49       271     12.71
03/08 23:00     11.50       273     12.65